Airport Information

KPDT - Eastern Oregon Regional Airport

KPDT 160653Z AUTO 04004KT 10SM OVC007 M02/M04 A2994 RMK AO2 SLP147 T10221044


  • General Information

  • Coordinates: N 45°41'42"/ W 118°50'29"
  • Location: N/A
  • Surveyed Elevation: 1497 MSL

Operations

Flow Name Active Runways Conditions

Green background denotes normal operations.


Common Frequencies

Callsign Frequency Position Name

More at the Document Center


Charts